createdAt,value
2018-11-12T00:01:54.905Z,10.30
2018-11-12T00:04:27.798Z,10.30
2018-11-12T00:07:00.550Z,10.30
2018-11-12T00:09:33.071Z,10.30
2018-11-12T00:12:04.949Z,10.30
2018-11-12T00:14:36.813Z,10.30
2018-11-12T00:17:08.763Z,10.20
2018-11-12T00:19:40.633Z,10.20
2018-11-12T00:22:12.632Z,10.30
2018-11-12T00:24:44.337Z,10.30
2018-11-12T00:27:16.166Z,10.20
2018-11-12T00:29:47.977Z,10.20
2018-11-12T00:32:20.061Z,10.20
2018-11-12T00:34:51.851Z,10.20
2018-11-12T00:37:23.697Z,10.20
2018-11-12T00:39:55.679Z,10.20
2018-11-12T00:42:27.633Z,10.20
2018-11-12T00:44:59.449Z,10.20
2018-11-12T00:47:31.265Z,10.20
2018-11-12T00:50:03.345Z,10.20
2018-11-12T00:52:35.241Z,10.20
2018-11-12T00:55:07.813Z,10.20
2018-11-12T00:57:40.018Z,10.20
2018-11-12T01:00:14.541Z,10.10
2018-11-12T01:02:48.528Z,10.10
2018-11-12T01:05:20.825Z,10.10
2018-11-12T01:07:52.754Z,10.10
2018-11-12T01:10:24.729Z,10.10
2018-11-12T01:12:56.683Z,10.10
2018-11-12T01:15:28.805Z,10.10
2018-11-12T01:18:00.593Z,10.10
2018-11-12T01:20:32.647Z,10.00
2018-11-12T01:23:04.425Z,10.10
2018-11-12T01:25:36.322Z,10.00
2018-11-12T01:28:08.281Z,10.00
2018-11-12T01:30:40.181Z,10.00
2018-11-12T01:33:12.172Z,10.00
2018-11-12T01:35:44.138Z,10.00
2018-11-12T01:38:16.109Z,10.00
2018-11-12T01:40:48.052Z,10.00
2018-11-12T01:43:20.142Z,10.00
2018-11-12T01:45:52.070Z,10.00
2018-11-12T01:48:23.888Z,10.00
2018-11-12T01:50:55.850Z,10.00
2018-11-12T01:53:27.862Z,10.00
2018-11-12T01:55:59.971Z,10.00
2018-11-12T01:58:31.780Z,9.90
2018-11-12T02:01:03.761Z,9.90
2018-11-12T02:03:35.710Z,9.90
2018-11-12T02:06:07.790Z,9.90
2018-11-12T02:08:39.772Z,9.90
2018-11-12T02:11:12.069Z,9.90
2018-11-12T02:13:44.248Z,9.90
2018-11-12T02:16:16.355Z,9.90
2018-11-12T02:18:48.419Z,9.90
2018-11-12T02:21:20.376Z,9.90
2018-11-12T02:23:52.547Z,9.90
2018-11-12T02:26:24.464Z,9.80
2018-11-12T02:28:56.202Z,9.90
2018-11-12T02:31:28.444Z,9.80
2018-11-12T02:34:00.297Z,9.80
2018-11-12T02:36:32.349Z,9.80
2018-11-12T02:39:05.973Z,9.80
2018-11-12T02:41:37.942Z,9.80
2018-11-12T02:44:10.200Z,9.80
2018-11-12T02:46:42.913Z,9.80
2018-11-12T02:49:15.584Z,9.80
2018-11-12T02:51:47.393Z,9.80
2018-11-12T02:54:19.372Z,9.80
2018-11-12T02:56:51.260Z,9.80
2018-11-12T02:59:23.365Z,9.80
2018-11-12T03:02:15.702Z,9.80
2018-11-12T03:05:00.109Z,9.80
2018-11-12T03:07:37.447Z,9.70
2018-11-12T03:10:12.042Z,9.70
2018-11-12T03:12:43.918Z,9.70
2018-11-12T03:15:17.023Z,9.70
2018-11-12T03:17:49.886Z,9.70
2018-11-12T03:20:23.794Z,9.70
2018-11-12T03:22:55.828Z,9.70
2018-11-12T03:25:38.519Z,9.70
2018-11-12T03:28:10.338Z,9.60
2018-11-12T03:30:42.243Z,9.60
2018-11-12T03:33:20.671Z,9.60
2018-11-12T03:35:54.384Z,9.60
2018-11-12T03:38:26.201Z,9.60
2018-11-12T03:40:58.973Z,9.60
2018-11-12T03:43:31.049Z,9.60
2018-11-12T03:46:03.017Z,9.60
2018-11-12T03:48:35.110Z,9.60
2018-11-12T03:51:07.088Z,9.60
2018-11-12T03:53:39.312Z,9.60
2018-11-12T03:56:11.932Z,9.60
2018-11-12T03:58:44.068Z,9.50
2018-11-12T04:01:15.845Z,9.60
2018-11-12T04:03:47.599Z,9.60
2018-11-12T04:06:19.327Z,9.60
2018-11-12T04:08:51.085Z,9.60
2018-11-12T04:11:23.055Z,9.50
2018-11-12T04:13:54.977Z,9.60
2018-11-12T04:16:27.729Z,9.50
2018-11-12T04:18:59.545Z,9.50
2018-11-12T04:21:31.369Z,9.50
2018-11-12T04:24:03.296Z,9.50
2018-11-12T04:26:35.188Z,9.50
2018-11-12T04:29:07.215Z,9.50
2018-11-12T04:31:39.971Z,9.50
2018-11-12T04:34:11.781Z,9.50
2018-11-12T04:36:43.697Z,9.50
2018-11-12T04:39:15.450Z,9.50
2018-11-12T04:41:47.501Z,9.50
2018-11-12T04:44:19.433Z,9.50
2018-11-12T04:46:51.284Z,9.50
2018-11-12T04:49:23.420Z,9.50
2018-11-12T04:51:55.520Z,9.50
2018-11-12T04:54:28.386Z,9.50
2018-11-12T04:57:01.143Z,9.50
2018-11-12T04:59:33.881Z,9.50
2018-11-12T05:02:06.467Z,9.40
2018-11-12T05:04:38.370Z,9.40
2018-11-12T05:07:10.589Z,9.40
2018-11-12T05:09:42.773Z,9.40
2018-11-12T05:12:14.933Z,9.40
2018-11-12T05:14:46.965Z,9.40
2018-11-12T05:17:19.014Z,9.40
2018-11-12T05:19:51.070Z,9.40
2018-11-12T05:22:23.014Z,9.40
2018-11-12T05:24:54.840Z,9.40
2018-11-12T05:27:26.808Z,9.40
2018-11-12T05:29:58.834Z,9.40
2018-11-12T05:32:30.842Z,9.40
2018-11-12T05:35:03.069Z,9.40
2018-11-12T05:37:35.559Z,9.40
2018-11-12T05:40:09.297Z,9.40
2018-11-12T05:42:41.358Z,9.40
2018-11-12T05:45:14.148Z,9.40
2018-11-12T05:47:46.011Z,9.40
2018-11-12T05:50:21.202Z,9.40
2018-11-12T05:52:55.456Z,9.40
2018-11-12T05:55:29.562Z,9.40
2018-11-12T05:58:02.661Z,9.40
2018-11-12T06:00:36.468Z,9.40
2018-11-12T06:03:08.581Z,9.40
2018-11-12T06:05:40.479Z,9.40
2018-11-12T06:08:12.399Z,9.40
2018-11-12T06:10:44.586Z,9.40
2018-11-12T06:13:17.381Z,9.40
2018-11-12T06:15:50.136Z,9.40
2018-11-12T06:18:21.981Z,9.40
2018-11-12T06:20:53.938Z,9.40
2018-11-12T06:23:26.659Z,9.40
2018-11-12T06:25:59.427Z,9.40
2018-11-12T06:28:32.216Z,9.40
2018-11-12T06:31:04.471Z,9.40
2018-11-12T06:33:36.469Z,9.40
2018-11-12T06:36:08.652Z,9.30
2018-11-12T06:38:40.666Z,9.40
2018-11-12T06:41:12.744Z,9.30
2018-11-12T06:43:44.691Z,9.40
2018-11-12T06:46:16.741Z,9.40
2018-11-12T06:48:48.818Z,9.30
2018-11-12T06:51:20.810Z,9.30
2018-11-12T06:53:52.767Z,9.40
2018-11-12T06:56:24.918Z,9.30
2018-11-12T06:58:56.960Z,9.40
2018-11-12T07:01:29.781Z,9.40
2018-11-12T07:04:01.799Z,9.30
2018-11-12T07:06:33.947Z,9.30
2018-11-12T07:09:07.975Z,9.30
2018-11-12T07:11:40.026Z,9.30
2018-11-12T07:14:11.865Z,9.30
2018-11-12T07:16:43.759Z,9.30
2018-11-12T07:19:16.121Z,9.30
2018-11-12T07:21:48.843Z,9.30
2018-11-12T07:24:21.425Z,9.30
2018-11-12T07:26:56.469Z,9.30
2018-11-12T07:29:28.503Z,9.30
2018-11-12T07:32:00.494Z,9.30
2018-11-12T07:34:32.237Z,9.30
2018-11-12T07:37:08.103Z,9.30
2018-11-12T07:39:45.253Z,9.30
2018-11-12T07:42:17.876Z,9.30
2018-11-12T07:44:53.150Z,9.30
2018-11-12T07:47:25.773Z,9.30
2018-11-12T07:49:58.489Z,9.30
2018-11-12T07:52:30.397Z,9.30
2018-11-12T07:55:02.124Z,9.30
2018-11-12T07:57:33.946Z,9.30
2018-11-12T08:00:06.768Z,9.30
2018-11-12T08:02:38.610Z,9.30
2018-11-12T08:05:11.069Z,9.30
2018-11-12T08:07:43.640Z,9.30
2018-11-12T08:10:17.777Z,9.30
2018-11-12T08:12:49.774Z,9.30
2018-11-12T08:15:22.020Z,9.30
2018-11-12T08:17:54.006Z,9.30
2018-11-12T08:20:27.281Z,9.30
2018-11-12T08:23:00.006Z,9.40
2018-11-12T08:25:32.371Z,9.30
2018-11-12T08:28:05.158Z,9.40
2018-11-12T08:30:37.224Z,9.30
2018-11-12T08:33:09.084Z,9.40
2018-11-12T08:35:41.144Z,9.40
2018-11-12T08:38:13.196Z,9.40
2018-11-12T08:40:45.735Z,9.40
2018-11-12T08:43:18.462Z,9.40
2018-11-12T08:45:50.276Z,9.40
2018-11-12T08:48:22.094Z,9.40
2018-11-12T08:50:53.957Z,9.40
2018-11-12T08:53:25.930Z,9.40
2018-11-12T08:55:57.898Z,9.40
2018-11-12T08:58:30.853Z,9.40
2018-11-12T09:01:02.814Z,9.40
2018-11-12T09:03:35.112Z,9.40
2018-11-12T09:06:07.402Z,9.40
2018-11-12T09:08:39.568Z,9.40
2018-11-12T09:11:11.603Z,9.50
2018-11-12T09:13:44.358Z,9.50
2018-11-12T09:16:16.240Z,9.50
2018-11-12T09:18:48.249Z,9.50
2018-11-12T09:21:20.010Z,9.50
2018-11-12T09:23:51.903Z,9.50
2018-11-12T09:26:23.892Z,9.50
2018-11-12T09:28:56.048Z,9.50
2018-11-12T09:31:29.014Z,9.50
2018-11-12T09:34:00.833Z,9.50
2018-11-12T09:36:32.852Z,9.50
2018-11-12T09:39:05.867Z,9.50
2018-11-12T09:41:37.961Z,9.50
2018-11-12T09:44:10.148Z,9.50
2018-11-12T09:46:42.913Z,9.50
2018-11-12T09:49:15.902Z,9.50
2018-11-12T09:51:47.902Z,9.50
2018-11-12T09:54:20.162Z,9.60
2018-11-12T09:56:52.212Z,9.60
2018-11-12T09:59:24.019Z,9.60
2018-11-12T10:01:56.856Z,9.60
2018-11-12T10:04:29.934Z,9.60
2018-11-12T10:07:02.326Z,9.60
2018-11-12T10:09:34.500Z,9.60
2018-11-12T10:12:07.380Z,9.60
2018-11-12T10:14:38.780Z,9.60
2018-11-12T10:17:13.165Z,9.60
2018-11-12T10:19:41.346Z,9.60
2018-11-12T10:22:13.364Z,9.70
2018-11-12T10:24:47.055Z,9.70
2018-11-12T10:27:20.003Z,9.70
2018-11-12T10:29:52.260Z,9.60
2018-11-12T10:32:24.334Z,9.70
2018-11-12T10:34:56.602Z,9.70
2018-11-12T10:37:28.684Z,9.60
2018-11-12T10:40:00.737Z,9.60
2018-11-12T10:42:32.969Z,9.70
2018-11-12T10:45:05.733Z,9.70
2018-11-12T10:47:37.950Z,9.70
2018-11-12T10:50:11.859Z,9.70
2018-11-12T10:52:44.237Z,9.70
2018-11-12T10:55:18.793Z,9.70
2018-11-12T10:57:51.199Z,9.70
2018-11-12T11:00:29.193Z,9.70
2018-11-12T11:03:06.825Z,9.70
2018-11-12T11:05:40.068Z,9.70
2018-11-12T11:08:12.367Z,9.70
2018-11-12T11:10:44.295Z,9.70
2018-11-12T11:13:16.050Z,9.70
2018-11-12T11:15:47.951Z,9.70
2018-11-12T11:18:20.023Z,9.70
2018-11-12T11:20:52.723Z,9.70
2018-11-12T11:23:25.430Z,9.70
2018-11-12T11:25:57.376Z,9.70
2018-11-12T11:28:29.418Z,9.70
2018-11-12T11:31:02.398Z,9.80
2018-11-12T11:33:34.755Z,9.70
2018-11-12T11:36:06.965Z,9.80
2018-11-12T11:38:38.959Z,9.70
2018-11-12T11:41:11.248Z,9.70
2018-11-12T11:43:43.718Z,9.70
2018-11-12T11:46:15.885Z,9.80
2018-11-12T11:48:52.363Z,9.70
2018-11-12T11:51:33.035Z,9.70
2018-11-12T11:54:05.149Z,9.70
2018-11-12T11:56:38.615Z,9.80
2018-11-12T11:59:10.724Z,9.80
2018-11-12T12:01:43.780Z,9.80
2018-11-12T12:04:16.197Z,9.80
2018-11-12T12:06:48.185Z,9.80
2018-11-12T12:09:20.220Z,9.80
2018-11-12T12:11:53.052Z,9.80
2018-11-12T12:14:25.625Z,9.80
2018-11-12T12:16:57.935Z,9.80
2018-11-12T12:19:30.689Z,9.80
2018-11-12T12:22:02.917Z,9.80
2018-11-12T12:24:35.739Z,9.80
2018-11-12T12:27:08.011Z,9.80
2018-11-12T12:29:40.049Z,9.80
2018-11-12T12:32:12.194Z,9.80
2018-11-12T12:34:45.747Z,9.80
2018-11-12T12:37:19.020Z,9.80
2018-11-12T12:39:52.106Z,9.80
2018-11-12T12:42:25.203Z,9.80
2018-11-12T12:44:58.655Z,9.80
2018-11-12T12:47:32.195Z,9.80
2018-11-12T12:50:05.780Z,9.80
2018-11-12T12:52:39.028Z,9.80
2018-11-12T12:55:13.330Z,9.80
2018-11-12T12:57:47.620Z,9.80
2018-11-12T13:00:22.655Z,9.80
2018-11-12T13:02:56.048Z,9.80
2018-11-12T13:05:28.956Z,9.80
2018-11-12T13:08:02.023Z,9.80
2018-11-12T13:10:36.219Z,9.80
2018-11-12T13:13:09.267Z,9.80
2018-11-12T13:15:42.519Z,9.80
2018-11-12T13:18:15.799Z,9.80
2018-11-12T13:20:49.229Z,9.80
2018-11-12T13:23:22.592Z,9.80
2018-11-12T13:25:56.295Z,9.80
2018-11-12T13:28:29.279Z,9.80
2018-11-12T13:31:02.797Z,9.80
2018-11-12T13:33:36.477Z,9.80
2018-11-12T13:36:10.096Z,9.80
2018-11-12T13:38:44.209Z,9.80
2018-11-12T13:41:17.673Z,9.80
2018-11-12T13:43:51.052Z,9.80
2018-11-12T13:46:28.846Z,9.80
2018-11-12T13:49:02.624Z,9.90
2018-11-12T13:51:36.660Z,9.80
2018-11-12T13:54:10.522Z,9.90
2018-11-12T13:56:43.623Z,9.80
2018-11-12T13:59:17.316Z,9.90
2018-11-12T14:01:51.115Z,9.80
2018-11-12T14:04:24.198Z,9.90
2018-11-12T14:06:57.619Z,9.80
2018-11-12T14:09:31.002Z,9.90
2018-11-12T14:12:04.191Z,9.90
2018-11-12T14:14:38.100Z,9.90
2018-11-12T14:17:11.483Z,9.90
2018-11-12T14:19:45.813Z,9.90
2018-11-12T14:22:19.416Z,9.90
2018-11-12T14:24:52.990Z,9.90
2018-11-12T14:27:26.466Z,9.90
2018-11-12T14:29:59.491Z,9.90
2018-11-12T14:32:33.772Z,9.90
2018-11-12T14:35:06.233Z,9.90
2018-11-12T14:37:38.650Z,9.90
2018-11-12T14:40:12.123Z,9.90
2018-11-12T14:42:44.480Z,9.90
2018-11-12T14:45:17.988Z,9.90
2018-11-12T14:47:50.675Z,9.90
2018-11-12T14:50:22.758Z,9.90
2018-11-12T14:52:55.558Z,9.90
2018-11-12T14:55:27.766Z,9.90
2018-11-12T14:58:00.100Z,9.90
2018-11-12T15:00:32.435Z,9.90
2018-11-12T15:03:04.688Z,9.90
2018-11-12T15:05:36.856Z,9.90
2018-11-12T15:08:09.388Z,9.90
2018-11-12T15:10:41.578Z,9.90
2018-11-12T15:13:13.744Z,9.90
2018-11-12T15:15:45.740Z,9.90
2018-11-12T15:18:17.787Z,9.90
2018-11-12T15:20:50.096Z,9.90
2018-11-12T15:23:22.114Z,9.90
2018-11-12T15:25:54.290Z,9.90
2018-11-12T15:28:26.399Z,9.90
2018-11-12T15:30:58.434Z,9.90
2018-11-12T15:33:30.638Z,9.90
2018-11-12T15:36:02.602Z,9.90
2018-11-12T15:38:34.763Z,9.90
2018-11-12T15:41:07.086Z,9.90
2018-11-12T15:43:39.183Z,9.90
2018-11-12T15:46:11.231Z,9.90
2018-11-12T15:48:43.353Z,9.90
2018-11-12T15:51:15.433Z,9.90
2018-11-12T15:53:47.705Z,9.90
2018-11-12T15:56:19.874Z,9.90
2018-11-12T15:58:52.137Z,9.90
2018-11-12T16:01:24.078Z,9.90
2018-11-12T16:03:56.111Z,9.90
2018-11-12T16:06:28.504Z,9.90
2018-11-12T16:09:00.743Z,9.90
2018-11-12T16:11:32.880Z,9.90
2018-11-12T16:14:05.012Z,9.90
2018-11-12T16:16:37.580Z,9.90
2018-11-12T16:19:10.622Z,9.90
2018-11-12T16:21:44.088Z,9.90
2018-11-12T16:24:15.958Z,10.00
2018-11-12T16:26:49.281Z,10.10
2018-11-12T16:29:21.717Z,10.30
2018-11-12T16:31:53.883Z,10.40
2018-11-12T16:34:27.711Z,10.50
2018-11-12T16:36:59.832Z,10.60
2018-11-12T16:39:32.235Z,10.70
2018-11-12T16:42:04.210Z,10.70
2018-11-12T16:44:36.169Z,10.80
2018-11-12T16:47:08.326Z,10.80
2018-11-12T16:49:40.055Z,10.80
2018-11-12T16:52:12.329Z,10.80
2018-11-12T16:54:45.258Z,10.90
2018-11-12T16:57:17.255Z,10.90
2018-11-12T16:59:49.359Z,10.90
2018-11-12T17:02:22.112Z,10.90
2018-11-12T17:04:54.371Z,10.90
2018-11-12T17:07:26.517Z,11.00
2018-11-12T17:09:58.546Z,11.00
2018-11-12T17:12:30.602Z,11.00
2018-11-12T17:15:02.497Z,11.00
2018-11-12T17:17:34.592Z,11.00
2018-11-12T17:20:07.198Z,11.00
2018-11-12T17:22:39.647Z,11.00
2018-11-12T17:25:13.043Z,11.00
2018-11-12T17:27:45.314Z,11.00
2018-11-12T17:30:18.941Z,11.00
2018-11-12T17:32:51.406Z,11.00
2018-11-12T17:35:23.820Z,11.10
2018-11-12T17:37:55.735Z,11.10
2018-11-12T17:40:27.944Z,11.10
2018-11-12T17:42:59.865Z,11.10
2018-11-12T17:45:33.223Z,11.10
2018-11-12T17:48:05.016Z,11.10
2018-11-12T17:50:36.867Z,11.10
2018-11-12T17:53:09.015Z,11.10
2018-11-12T17:55:41.040Z,11.10
2018-11-12T17:58:13.630Z,11.10
2018-11-12T18:00:46.400Z,11.10
2018-11-12T18:03:18.486Z,11.10
2018-11-12T18:05:50.620Z,11.10
2018-11-12T18:08:22.817Z,11.10
2018-11-12T18:10:54.789Z,11.10
2018-11-12T18:13:27.266Z,11.10
2018-11-12T18:15:59.645Z,11.10
2018-11-12T18:18:32.248Z,11.10
2018-11-12T18:21:04.530Z,11.10
2018-11-12T18:23:36.445Z,11.10
2018-11-12T18:26:09.563Z,11.10
2018-11-12T18:28:42.697Z,11.10
2018-11-12T18:31:15.193Z,11.10
2018-11-12T18:33:47.177Z,11.10
2018-11-12T18:36:19.159Z,11.10
2018-11-12T18:38:51.241Z,11.10
2018-11-12T18:41:23.434Z,11.10
2018-11-12T18:43:55.617Z,11.10
2018-11-12T18:46:27.671Z,11.10
2018-11-12T18:48:59.920Z,11.10
2018-11-12T18:51:32.402Z,11.10
2018-11-12T18:54:04.378Z,11.10
2018-11-12T18:56:36.356Z,11.10
2018-11-12T19:02:08.048Z,11.10
2018-11-12T19:04:40.592Z,11.10
2018-11-12T19:07:13.298Z,11.10
2018-11-12T19:09:46.150Z,11.10
2018-11-12T19:12:18.356Z,11.10
2018-11-12T19:14:52.873Z,11.10
2018-11-12T19:17:25.966Z,11.10
2018-11-12T19:19:58.513Z,11.00
2018-11-12T19:22:30.545Z,11.00
2018-11-12T19:25:04.367Z,11.00
2018-11-12T19:27:37.161Z,11.10
2018-11-12T19:30:18.475Z,11.00
2018-11-12T19:32:51.583Z,11.10
2018-11-12T19:35:25.129Z,11.00
2018-11-12T19:37:57.398Z,11.10
2018-11-12T19:40:31.402Z,11.00
2018-11-12T19:43:03.787Z,11.00
2018-11-12T19:45:36.660Z,11.00
2018-11-12T19:48:09.388Z,11.00
2018-11-12T19:50:41.541Z,11.00
2018-11-12T19:53:13.885Z,11.00
2018-11-12T19:55:46.022Z,11.00
2018-11-12T19:58:18.865Z,11.00
2018-11-12T20:00:51.851Z,11.00
2018-11-12T20:03:24.044Z,11.00
2018-11-12T20:05:56.213Z,11.00
2018-11-12T20:08:30.695Z,10.90
2018-11-12T20:11:02.839Z,10.90
2018-11-12T20:13:35.963Z,10.90
2018-11-12T20:16:09.345Z,10.90
2018-11-12T20:18:41.607Z,10.90
2018-11-12T20:21:14.098Z,10.90
2018-11-12T20:23:46.473Z,10.90
2018-11-12T20:26:18.747Z,10.90
2018-11-12T20:28:50.834Z,10.90
2018-11-12T20:31:23.004Z,10.90
2018-11-12T20:33:54.876Z,10.90
2018-11-12T20:36:28.180Z,10.90
2018-11-12T20:39:01.155Z,10.90
2018-11-12T20:41:33.680Z,10.90
2018-11-12T20:44:07.609Z,10.90
2018-11-12T20:46:39.655Z,10.90
2018-11-12T20:49:11.797Z,10.80
2018-11-12T20:51:43.962Z,10.80
2018-11-12T20:54:16.745Z,10.90
2018-11-12T20:56:49.493Z,10.80
2018-11-12T20:59:23.202Z,10.80
2018-11-12T21:01:55.359Z,10.80
2018-11-12T21:04:27.699Z,10.80
2018-11-12T21:06:59.892Z,10.80
2018-11-12T21:09:32.090Z,10.80
2018-11-12T21:12:05.484Z,10.80
2018-11-12T21:14:38.034Z,10.80
2018-11-12T21:17:10.908Z,10.80
2018-11-12T21:19:43.740Z,10.70
2018-11-12T21:22:17.634Z,10.80
2018-11-12T21:24:49.736Z,10.70
2018-11-12T21:27:22.044Z,10.70
2018-11-12T21:29:54.294Z,10.70
2018-11-12T21:32:26.411Z,10.70
2018-11-12T21:34:58.381Z,10.70
2018-11-12T21:37:30.457Z,10.70
2018-11-12T21:40:02.620Z,10.70
2018-11-12T21:42:34.762Z,10.70
2018-11-12T21:45:07.402Z,10.70
2018-11-12T21:47:40.123Z,10.70
2018-11-12T21:50:14.404Z,10.60
2018-11-12T21:52:46.585Z,10.60
2018-11-12T21:55:18.717Z,10.60
2018-11-12T21:57:51.609Z,10.60
2018-11-12T22:00:25.839Z,10.60
2018-11-12T22:03:00.164Z,10.60
2018-11-12T22:05:33.019Z,10.60
2018-11-12T22:08:06.156Z,10.60
2018-11-12T22:10:38.232Z,10.60
2018-11-12T22:13:10.618Z,10.60
2018-11-12T22:15:43.431Z,10.60
2018-11-12T22:18:15.700Z,10.60
2018-11-12T22:20:47.942Z,10.60
2018-11-12T22:23:20.147Z,10.50
2018-11-12T22:25:52.108Z,10.50
2018-11-12T22:28:24.204Z,10.50
2018-11-12T22:30:56.242Z,10.50
2018-11-12T22:33:28.188Z,10.50
2018-11-12T22:36:00.192Z,10.50
2018-11-12T22:38:32.167Z,10.50
2018-11-12T22:41:04.364Z,10.50
2018-11-12T22:43:36.642Z,10.50
2018-11-12T22:46:08.618Z,10.50
2018-11-12T22:48:40.759Z,10.40
2018-11-12T22:51:12.875Z,10.40
2018-11-12T22:53:45.071Z,10.40
2018-11-12T22:56:17.267Z,10.40
2018-11-12T22:58:49.404Z,10.40
2018-11-12T23:01:21.684Z,10.40
2018-11-12T23:03:53.767Z,10.40
2018-11-12T23:06:25.925Z,10.40
2018-11-12T23:08:58.016Z,10.40
2018-11-12T23:11:30.285Z,10.40
2018-11-12T23:14:02.304Z,10.40
2018-11-12T23:16:34.871Z,10.40
2018-11-12T23:19:06.982Z,10.40
2018-11-12T23:21:39.282Z,10.30
2018-11-12T23:24:11.367Z,10.40
2018-11-12T23:26:43.312Z,10.30
2018-11-12T23:29:15.201Z,10.30
2018-11-12T23:31:47.262Z,10.30
2018-11-12T23:34:20.491Z,10.30
2018-11-12T23:36:53.350Z,10.30
2018-11-12T23:39:26.119Z,10.30
2018-11-12T23:41:58.800Z,10.30
2018-11-12T23:44:30.964Z,10.30
2018-11-12T23:47:02.919Z,10.30
2018-11-12T23:49:34.778Z,10.30
2018-11-12T23:52:06.856Z,10.30
2018-11-12T23:54:38.817Z,10.30
2018-11-12T23:57:10.769Z,10.30
2018-11-12T23:59:42.829Z,10.30
